sensor_id;sensor_type;location;lat;lon;timestamp;P1;durP1;ratioP1;P2;durP2;ratioP2
67889;SDS011;54685;52.082;5.426;2024-03-23T00:53:48;36.50;;;12.68;;
67889;SDS011;54685;52.082;5.426;2024-03-23T00:56:13;39.80;;;11.48;;
67889;SDS011;54685;52.082;5.426;2024-03-23T00:58:42;37.10;;;11.40;;
67889;SDS011;54685;52.082;5.426;2024-03-23T01:01:08;28.35;;;10.95;;
67889;SDS011;54685;52.082;5.426;2024-03-23T01:03:34;32.03;;;12.10;;
67889;SDS011;54685;52.082;5.426;2024-03-23T01:06:00;50.60;;;13.43;;
67889;SDS011;54685;52.082;5.426;2024-03-23T01:08:26;38.60;;;11.80;;
67889;SDS011;54685;52.082;5.426;2024-03-23T01:10:59;33.30;;;11.13;;
67889;SDS011;54685;52.082;5.426;2024-03-23T01:13:26;33.53;;;11.43;;
67889;SDS011;54685;52.082;5.426;2024-03-23T01:15:54;39.03;;;11.75;;
67889;SDS011;54685;52.082;5.426;2024-03-23T01:18:21;35.03;;;11.65;;
67889;SDS011;54685;52.082;5.426;2024-03-23T01:20:48;39.53;;;11.85;;
67889;SDS011;54685;52.082;5.426;2024-03-23T01:23:14;25.52;;;10.45;;
67889;SDS011;54685;52.082;5.426;2024-03-23T01:25:40;35.65;;;10.80;;
67889;SDS011;54685;52.082;5.426;2024-03-23T01:28:06;31.95;;;10.65;;
67889;SDS011;54685;52.082;5.426;2024-03-23T01:30:33;33.63;;;11.18;;
67889;SDS011;54685;52.082;5.426;2024-03-23T01:32:59;47.03;;;12.52;;
67889;SDS011;54685;52.082;5.426;2024-03-23T01:35:25;35.17;;;10.48;;
67889;SDS011;54685;52.082;5.426;2024-03-23T01:37:51;43.85;;;11.20;;
67889;SDS011;54685;52.082;5.426;2024-03-23T01:40:17;43.38;;;10.95;;
67889;SDS011;54685;52.082;5.426;2024-03-23T01:45:42;40.05;;;11.75;;
67889;SDS011;54685;52.082;5.426;2024-03-23T01:48:08;38.35;;;10.70;;
67889;SDS011;54685;52.082;5.426;2024-03-23T01:50:35;37.78;;;10.60;;
67889;SDS011;54685;52.082;5.426;2024-03-23T01:53:02;35.60;;;10.68;;
67889;SDS011;54685;52.082;5.426;2024-03-23T01:55:31;34.28;;;10.75;;
67889;SDS011;54685;52.082;5.426;2024-03-23T01:57:58;31.45;;;10.25;;
67889;SDS011;54685;52.082;5.426;2024-03-23T02:00:24;31.95;;;10.27;;
67889;SDS011;54685;52.082;5.426;2024-03-23T02:02:50;31.10;;;10.50;;
67889;SDS011;54685;52.082;5.426;2024-03-23T02:05:16;31.90;;;10.25;;
67889;SDS011;54685;52.082;5.426;2024-03-23T02:07:42;34.47;;;10.25;;
67889;SDS011;54685;52.082;5.426;2024-03-23T02:10:09;36.92;;;12.30;;
67889;SDS011;54685;52.082;5.426;2024-03-23T02:12:38;33.55;;;11.10;;
67889;SDS011;54685;52.082;5.426;2024-03-23T02:15:05;31.15;;;11.05;;
67889;SDS011;54685;52.082;5.426;2024-03-23T02:17:32;30.40;;;10.35;;
67889;SDS011;54685;52.082;5.426;2024-03-23T02:19:59;32.47;;;10.55;;
67889;SDS011;54685;52.082;5.426;2024-03-23T02:22:35;34.50;;;11.38;;
67889;SDS011;54685;52.082;5.426;2024-03-23T02:25:02;36.67;;;10.85;;
67889;SDS011;54685;52.082;5.426;2024-03-23T02:27:31;35.15;;;10.75;;
67889;SDS011;54685;52.082;5.426;2024-03-23T02:29:58;33.45;;;10.82;;
67889;SDS011;54685;52.082;5.426;2024-03-23T02:32:24;32.88;;;10.70;;
67889;SDS011;54685;52.082;5.426;2024-03-23T02:34:50;40.22;;;11.98;;
67889;SDS011;54685;52.082;5.426;2024-03-23T02:37:16;34.08;;;10.68;;
67889;SDS011;54685;52.082;5.426;2024-03-23T02:39:41;38.75;;;11.93;;
67889;SDS011;54685;52.082;5.426;2024-03-23T02:42:07;32.75;;;11.38;;
67889;SDS011;54685;52.082;5.426;2024-03-23T02:44:33;38.70;;;12.65;;
67889;SDS011;54685;52.082;5.426;2024-03-23T02:46:59;54.10;;;11.32;;
67889;SDS011;54685;52.082;5.426;2024-03-23T02:49:25;35.75;;;11.98;;
67889;SDS011;54685;52.082;5.426;2024-03-23T02:51:52;25.50;;;11.25;;
67889;SDS011;54685;52.082;5.426;2024-03-23T02:54:17;38.78;;;11.30;;
67889;SDS011;54685;52.082;5.426;2024-03-23T02:56:45;35.47;;;10.75;;
67889;SDS011;54685;52.082;5.426;2024-03-23T02:59:10;37.83;;;11.32;;
67889;SDS011;54685;52.082;5.426;2024-03-23T03:01:36;30.88;;;11.07;;
67889;SDS011;54685;52.082;5.426;2024-03-23T03:04:02;32.83;;;11.23;;
67889;SDS011;54685;52.082;5.426;2024-03-23T03:06:29;32.30;;;11.18;;
67889;SDS011;54685;52.082;5.426;2024-03-23T03:08:55;38.03;;;11.48;;
67889;SDS011;54685;52.082;5.426;2024-03-23T03:11:21;31.08;;;11.45;;
67889;SDS011;54685;52.082;5.426;2024-03-23T03:13:47;33.97;;;11.18;;
67889;SDS011;54685;52.082;5.426;2024-03-23T03:16:13;29.33;;;10.48;;
67889;SDS011;54685;52.082;5.426;2024-03-23T03:18:39;31.80;;;11.25;;
67889;SDS011;54685;52.082;5.426;2024-03-23T03:21:09;32.83;;;10.93;;
67889;SDS011;54685;52.082;5.426;2024-03-23T03:23:36;35.47;;;10.35;;
67889;SDS011;54685;52.082;5.426;2024-03-23T03:26:03;27.00;;;10.10;;
67889;SDS011;54685;52.082;5.426;2024-03-23T03:28:30;31.52;;;10.52;;
67889;SDS011;54685;52.082;5.426;2024-03-23T03:31:00;27.13;;;9.23;;
67889;SDS011;54685;52.082;5.426;2024-03-23T03:33:26;44.10;;;11.10;;
67889;SDS011;54685;52.082;5.426;2024-03-23T03:35:53;25.20;;;9.52;;
67889;SDS011;54685;52.082;5.426;2024-03-23T03:38:19;30.58;;;9.05;;
67889;SDS011;54685;52.082;5.426;2024-03-23T03:40:45;26.15;;;9.68;;
67889;SDS011;54685;52.082;5.426;2024-03-23T03:43:11;25.90;;;9.98;;
67889;SDS011;54685;52.082;5.426;2024-03-23T03:45:37;31.17;;;10.05;;
67889;SDS011;54685;52.082;5.426;2024-03-23T03:48:03;28.23;;;9.25;;
67889;SDS011;54685;52.082;5.426;2024-03-23T03:50:29;28.25;;;9.20;;
67889;SDS011;54685;52.082;5.426;2024-03-23T03:52:55;26.40;;;8.75;;
67889;SDS011;54685;52.082;5.426;2024-03-23T03:55:21;25.92;;;8.77;;
67889;SDS011;54685;52.082;5.426;2024-03-23T03:57:47;23.63;;;8.30;;
67889;SDS011;54685;52.082;5.426;2024-03-23T04:00:13;22.17;;;8.27;;
67889;SDS011;54685;52.082;5.426;2024-03-23T04:02:39;25.33;;;8.05;;
67889;SDS011;54685;52.082;5.426;2024-03-23T04:05:05;21.33;;;7.97;;
67889;SDS011;54685;52.082;5.426;2024-03-23T04:07:33;27.52;;;8.68;;
67889;SDS011;54685;52.082;5.426;2024-03-23T04:09:59;28.35;;;8.00;;
67889;SDS011;54685;52.082;5.426;2024-03-23T04:12:25;29.83;;;7.47;;
67889;SDS011;54685;52.082;5.426;2024-03-23T04:14:51;19.08;;;7.03;;
67889;SDS011;54685;52.082;5.426;2024-03-23T04:17:17;19.27;;;7.22;;
67889;SDS011;54685;52.082;5.426;2024-03-23T04:19:43;25.00;;;6.35;;
67889;SDS011;54685;52.082;5.426;2024-03-23T04:22:09;21.88;;;6.28;;
67889;SDS011;54685;52.082;5.426;2024-03-23T04:24:35;21.27;;;6.25;;
67889;SDS011;54685;52.082;5.426;2024-03-23T04:27:01;19.05;;;6.45;;
67889;SDS011;54685;52.082;5.426;2024-03-23T04:29:27;21.70;;;6.03;;
67889;SDS011;54685;52.082;5.426;2024-03-23T04:31:53;21.70;;;5.38;;
67889;SDS011;54685;52.082;5.426;2024-03-23T04:34:19;20.80;;;5.68;;
67889;SDS011;54685;52.082;5.426;2024-03-23T04:36:44;17.35;;;5.53;;
67889;SDS011;54685;52.082;5.426;2024-03-23T04:39:10;25.20;;;5.93;;
67889;SDS011;54685;52.082;5.426;2024-03-23T04:41:36;18.98;;;5.13;;
67889;SDS011;54685;52.082;5.426;2024-03-23T04:44:02;14.88;;;4.75;;
67889;SDS011;54685;52.082;5.426;2024-03-23T04:46:28;20.08;;;4.55;;
67889;SDS011;54685;52.082;5.426;2024-03-23T04:48:53;17.80;;;4.97;;
67889;SDS011;54685;52.082;5.426;2024-03-23T04:51:25;16.15;;;4.78;;
67889;SDS011;54685;52.082;5.426;2024-03-23T04:53:51;19.48;;;4.55;;
67889;SDS011;54685;52.082;5.426;2024-03-23T04:56:17;22.27;;;4.53;;
67889;SDS011;54685;52.082;5.426;2024-03-23T04:58:43;13.13;;;4.10;;
67889;SDS011;54685;52.082;5.426;2024-03-23T05:01:10;18.08;;;4.30;;
67889;SDS011;54685;52.082;5.426;2024-03-23T05:03:36;20.00;;;4.90;;
67889;SDS011;54685;52.082;5.426;2024-03-23T05:06:03;20.80;;;4.40;;
67889;SDS011;54685;52.082;5.426;2024-03-23T05:08:30;15.05;;;3.83;;
67889;SDS011;54685;52.082;5.426;2024-03-23T05:10:56;19.88;;;4.47;;
67889;SDS011;54685;52.082;5.426;2024-03-23T05:13:22;16.85;;;3.80;;
67889;SDS011;54685;52.082;5.426;2024-03-23T05:15:54;16.27;;;4.03;;
67889;SDS011;54685;52.082;5.426;2024-03-23T05:18:21;10.30;;;3.70;;
67889;SDS011;54685;52.082;5.426;2024-03-23T05:20:47;13.70;;;3.92;;
67889;SDS011;54685;52.082;5.426;2024-03-23T05:23:13;16.23;;;4.05;;
67889;SDS011;54685;52.082;5.426;2024-03-23T05:25:39;19.13;;;3.90;;
67889;SDS011;54685;52.082;5.426;2024-03-23T05:28:04;13.23;;;3.75;;
67889;SDS011;54685;52.082;5.426;2024-03-23T05:30:31;23.02;;;4.95;;
67889;SDS011;54685;52.082;5.426;2024-03-23T05:32:57;20.58;;;4.50;;
67889;SDS011;54685;52.082;5.426;2024-03-23T05:35:23;16.45;;;3.45;;
67889;SDS011;54685;52.082;5.426;2024-03-23T05:37:48;11.77;;;3.47;;
67889;SDS011;54685;52.082;5.426;2024-03-23T05:40:14;14.45;;;3.45;;
67889;SDS011;54685;52.082;5.426;2024-03-23T05:42:41;11.88;;;3.38;;
67889;SDS011;54685;52.082;5.426;2024-03-23T05:45:07;15.02;;;3.30;;
67889;SDS011;54685;52.082;5.426;2024-03-23T05:47:33;18.40;;;3.28;;
67889;SDS011;54685;52.082;5.426;2024-03-23T05:49:59;12.40;;;3.03;;
67889;SDS011;54685;52.082;5.426;2024-03-23T05:52:27;12.45;;;3.03;;
67889;SDS011;54685;52.082;5.426;2024-03-23T05:54:53;13.02;;;3.17;;
67889;SDS011;54685;52.082;5.426;2024-03-23T05:57:19;14.02;;;2.88;;
67889;SDS011;54685;52.082;5.426;2024-03-23T05:59:46;20.00;;;3.08;;
67889;SDS011;54685;52.082;5.426;2024-03-23T06:02:11;16.98;;;3.47;;
67889;SDS011;54685;52.082;5.426;2024-03-23T06:04:37;19.90;;;3.22;;
67889;SDS011;54685;52.082;5.426;2024-03-23T06:07:04;11.55;;;2.55;;
67889;SDS011;54685;52.082;5.426;2024-03-23T06:09:31;12.13;;;2.60;;
67889;SDS011;54685;52.082;5.426;2024-03-23T06:11:57;12.27;;;2.60;;
67889;SDS011;54685;52.082;5.426;2024-03-23T06:14:23;10.32;;;2.47;;
67889;SDS011;54685;52.082;5.426;2024-03-23T06:16:49;12.50;;;2.20;;
67889;SDS011;54685;52.082;5.426;2024-03-23T06:19:15;11.80;;;2.35;;
67889;SDS011;54685;52.082;5.426;2024-03-23T06:21:44;14.95;;;2.72;;
67889;SDS011;54685;52.082;5.426;2024-03-23T06:24:11;10.35;;;2.55;;
67889;SDS011;54685;52.082;5.426;2024-03-23T06:26:37;9.68;;;2.10;;
67889;SDS011;54685;52.082;5.426;2024-03-23T06:29:03;14.93;;;2.53;;
67889;SDS011;54685;52.082;5.426;2024-03-23T06:31:30;11.50;;;2.17;;
67889;SDS011;54685;52.082;5.426;2024-03-23T06:33:56;9.52;;;2.08;;
67889;SDS011;54685;52.082;5.426;2024-03-23T06:36:22;14.15;;;2.35;;
67889;SDS011;54685;52.082;5.426;2024-03-23T06:38:48;12.10;;;2.13;;
67889;SDS011;54685;52.082;5.426;2024-03-23T06:41:14;12.93;;;2.22;;
67889;SDS011;54685;52.082;5.426;2024-03-23T06:43:40;10.00;;;2.00;;
67889;SDS011;54685;52.082;5.426;2024-03-23T06:46:06;14.48;;;2.22;;
67889;SDS011;54685;52.082;5.426;2024-03-23T06:48:32;12.32;;;1.98;;
67889;SDS011;54685;52.082;5.426;2024-03-23T06:50:57;8.40;;;2.05;;
67889;SDS011;54685;52.082;5.426;2024-03-23T06:53:23;11.25;;;2.55;;
67889;SDS011;54685;52.082;5.426;2024-03-23T06:55:50;14.77;;;2.72;;
67889;SDS011;54685;52.082;5.426;2024-03-23T06:58:23;18.48;;;2.53;;
67889;SDS011;54685;52.082;5.426;2024-03-23T07:00:50;12.85;;;2.03;;
67889;SDS011;54685;52.082;5.426;2024-03-23T07:03:16;15.50;;;2.33;;
67889;SDS011;54685;52.082;5.426;2024-03-23T07:05:42;11.68;;;2.03;;
67889;SDS011;54685;52.082;5.426;2024-03-23T07:08:08;11.65;;;2.15;;
67889;SDS011;54685;52.082;5.426;2024-03-23T07:10:34;19.15;;;3.10;;
67889;SDS011;54685;52.082;5.426;2024-03-23T07:13:01;14.82;;;2.58;;
67889;SDS011;54685;52.082;5.426;2024-03-23T07:15:26;13.20;;;2.53;;
67889;SDS011;54685;52.082;5.426;2024-03-23T07:17:52;16.08;;;2.88;;
67889;SDS011;54685;52.082;5.426;2024-03-23T07:20:18;15.55;;;2.20;;
67889;SDS011;54685;52.082;5.426;2024-03-23T07:22:45;12.93;;;2.42;;
67889;SDS011;54685;52.082;5.426;2024-03-23T07:25:12;13.23;;;3.10;;
67889;SDS011;54685;52.082;5.426;2024-03-23T07:27:38;17.13;;;3.50;;
67889;SDS011;54685;52.082;5.426;2024-03-23T07:30:04;13.18;;;2.50;;
67889;SDS011;54685;52.082;5.426;2024-03-23T07:32:34;12.18;;;2.67;;
67889;SDS011;54685;52.082;5.426;2024-03-23T07:35:01;15.68;;;2.95;;
67889;SDS011;54685;52.082;5.426;2024-03-23T07:37:27;12.07;;;3.03;;
67889;SDS011;54685;52.082;5.426;2024-03-23T07:39:52;14.43;;;3.08;;
67889;SDS011;54685;52.082;5.426;2024-03-23T07:42:18;15.00;;;2.63;;
67889;SDS011;54685;52.082;5.426;2024-03-23T07:44:44;12.15;;;2.55;;
67889;SDS011;54685;52.082;5.426;2024-03-23T07:47:12;12.55;;;2.35;;
67889;SDS011;54685;52.082;5.426;2024-03-23T07:49:37;13.90;;;2.53;;
67889;SDS011;54685;52.082;5.426;2024-03-23T07:52:05;15.65;;;2.22;;
67889;SDS011;54685;52.082;5.426;2024-03-23T07:54:31;17.10;;;2.80;;
67889;SDS011;54685;52.082;5.426;2024-03-23T07:56:57;12.77;;;2.47;;
67889;SDS011;54685;52.082;5.426;2024-03-23T07:59:23;9.82;;;2.08;;
67889;SDS011;54685;52.082;5.426;2024-03-23T08:01:48;11.80;;;2.03;;
67889;SDS011;54685;52.082;5.426;2024-03-23T08:04:14;10.50;;;1.98;;
67889;SDS011;54685;52.082;5.426;2024-03-23T08:06:40;8.95;;;2.38;;
67889;SDS011;54685;52.082;5.426;2024-03-23T08:09:06;10.13;;;1.90;;
67889;SDS011;54685;52.082;5.426;2024-03-23T08:11:34;13.20;;;1.95;;
67889;SDS011;54685;52.082;5.426;2024-03-23T08:14:00;18.80;;;2.90;;
67889;SDS011;54685;52.082;5.426;2024-03-23T08:16:27;9.35;;;1.85;;
67889;SDS011;54685;52.082;5.426;2024-03-23T08:18:53;13.52;;;2.05;;
67889;SDS011;54685;52.082;5.426;2024-03-23T08:21:20;12.25;;;2.22;;
67889;SDS011;54685;52.082;5.426;2024-03-23T08:23:46;15.75;;;2.42;;
67889;SDS011;54685;52.082;5.426;2024-03-23T08:26:14;18.08;;;3.10;;
67889;SDS011;54685;52.082;5.426;2024-03-23T08:28:41;15.98;;;2.67;;
67889;SDS011;54685;52.082;5.426;2024-03-23T08:31:08;10.02;;;2.22;;
67889;SDS011;54685;52.082;5.426;2024-03-23T08:33:34;13.70;;;2.50;;
67889;SDS011;54685;52.082;5.426;2024-03-23T08:36:05;12.85;;;2.53;;
67889;SDS011;54685;52.082;5.426;2024-03-23T08:38:32;15.02;;;2.92;;
67889;SDS011;54685;52.082;5.426;2024-03-23T08:43:25;15.02;;;4.45;;
67889;SDS011;54685;52.082;5.426;2024-03-23T08:46:03;11.57;;;2.10;;
67889;SDS011;54685;52.082;5.426;2024-03-23T08:48:32;13.15;;;3.80;;
67889;SDS011;54685;52.082;5.426;2024-03-23T08:51:03;15.52;;;5.03;;
67889;SDS011;54685;52.082;5.426;2024-03-23T08:53:30;14.93;;;5.63;;
67889;SDS011;54685;52.082;5.426;2024-03-23T08:55:56;24.75;;;4.45;;
67889;SDS011;54685;52.082;5.426;2024-03-23T08:58:23;9.88;;;2.63;;
67889;SDS011;54685;52.082;5.426;2024-03-23T09:00:51;8.85;;;1.70;;
67889;SDS011;54685;52.082;5.426;2024-03-23T09:03:25;13.98;;;2.00;;
67889;SDS011;54685;52.082;5.426;2024-03-23T09:05:51;8.55;;;1.58;;
67889;SDS011;54685;52.082;5.426;2024-03-23T09:08:18;13.55;;;2.22;;
67889;SDS011;54685;52.082;5.426;2024-03-23T09:10:44;14.45;;;1.98;;
67889;SDS011;54685;52.082;5.426;2024-03-23T09:13:10;17.35;;;2.40;;
67889;SDS011;54685;52.082;5.426;2024-03-23T09:15:37;8.52;;;1.50;;
67889;SDS011;54685;52.082;5.426;2024-03-23T09:18:10;13.63;;;2.17;;
67889;SDS011;54685;52.082;5.426;2024-03-23T09:20:36;12.52;;;1.95;;
67889;SDS011;54685;52.082;5.426;2024-03-23T09:23:02;12.32;;;1.90;;
67889;SDS011;54685;52.082;5.426;2024-03-23T09:25:28;13.98;;;1.85;;
67889;SDS011;54685;52.082;5.426;2024-03-23T09:27:54;10.15;;;1.98;;
67889;SDS011;54685;52.082;5.426;2024-03-23T09:30:20;11.00;;;1.92;;
67889;SDS011;54685;52.082;5.426;2024-03-23T09:32:45;12.75;;;1.90;;
67889;SDS011;54685;52.082;5.426;2024-03-23T09:35:11;14.65;;;2.17;;
67889;SDS011;54685;52.082;5.426;2024-03-23T09:37:38;9.20;;;2.10;;
67889;SDS011;54685;52.082;5.426;2024-03-23T09:40:10;14.93;;;2.05;;
67889;SDS011;54685;52.082;5.426;2024-03-23T09:42:39;12.50;;;2.97;;
67889;SDS011;54685;52.082;5.426;2024-03-23T09:45:06;9.88;;;1.83;;
67889;SDS011;54685;52.082;5.426;2024-03-23T09:47:37;13.13;;;1.83;;
67889;SDS011;54685;52.082;5.426;2024-03-23T09:50:03;13.75;;;2.55;;
67889;SDS011;54685;52.082;5.426;2024-03-23T09:52:31;8.02;;;1.70;;
67889;SDS011;54685;52.082;5.426;2024-03-23T09:54:56;10.10;;;2.28;;
67889;SDS011;54685;52.082;5.426;2024-03-23T09:57:22;9.90;;;2.85;;
67889;SDS011;54685;52.082;5.426;2024-03-23T09:59:48;13.48;;;2.30;;
67889;SDS011;54685;52.082;5.426;2024-03-23T10:02:15;10.15;;;1.80;;
67889;SDS011;54685;52.082;5.426;2024-03-23T10:04:42;6.75;;;1.80;;
67889;SDS011;54685;52.082;5.426;2024-03-23T10:07:13;13.07;;;2.20;;
67889;SDS011;54685;52.082;5.426;2024-03-23T10:09:40;9.32;;;2.95;;
67889;SDS011;54685;52.082;5.426;2024-03-23T10:12:12;13.45;;;4.32;;
67889;SDS011;54685;52.082;5.426;2024-03-23T10:14:40;15.45;;;4.50;;
67889;SDS011;54685;52.082;5.426;2024-03-23T10:19:40;11.63;;;2.78;;
67889;SDS011;54685;52.082;5.426;2024-03-23T10:22:08;12.50;;;2.42;;
67889;SDS011;54685;52.082;5.426;2024-03-23T10:24:35;13.88;;;2.40;;
67889;SDS011;54685;52.082;5.426;2024-03-23T10:27:01;12.07;;;2.05;;
67889;SDS011;54685;52.082;5.426;2024-03-23T10:29:27;11.30;;;2.03;;
67889;SDS011;54685;52.082;5.426;2024-03-23T10:31:53;8.88;;;2.05;;
67889;SDS011;54685;52.082;5.426;2024-03-23T10:34:32;11.40;;;2.25;;
67889;SDS011;54685;52.082;5.426;2024-03-23T10:36:58;13.32;;;2.78;;
67889;SDS011;54685;52.082;5.426;2024-03-23T10:39:27;13.35;;;1.92;;
67889;SDS011;54685;52.082;5.426;2024-03-23T10:41:52;14.25;;;2.17;;
67889;SDS011;54685;52.082;5.426;2024-03-23T10:44:21;10.77;;;2.20;;
67889;SDS011;54685;52.082;5.426;2024-03-23T10:46:51;8.57;;;2.40;;
67889;SDS011;54685;52.082;5.426;2024-03-23T10:49:25;11.38;;;2.47;;
67889;SDS011;54685;52.082;5.426;2024-03-23T10:51:52;11.10;;;2.40;;
67889;SDS011;54685;52.082;5.426;2024-03-23T10:54:18;11.77;;;3.53;;
67889;SDS011;54685;52.082;5.426;2024-03-23T10:56:45;6.68;;;1.00;;
67889;SDS011;54685;52.082;5.426;2024-03-23T10:59:12;4.72;;;1.02;;
67889;SDS011;54685;52.082;5.426;2024-03-23T11:01:57;5.32;;;0.93;;
67889;SDS011;54685;52.082;5.426;2024-03-23T11:04:37;7.90;;;1.20;;
67889;SDS011;54685;52.082;5.426;2024-03-23T11:09:48;14.90;;;1.80;;
67889;SDS011;54685;52.082;5.426;2024-03-23T11:14:48;10.75;;;1.98;;
67889;SDS011;54685;52.082;5.426;2024-03-23T11:17:19;9.48;;;1.80;;
67889;SDS011;54685;52.082;5.426;2024-03-23T11:22:40;7.72;;;1.45;;
67889;SDS011;54685;52.082;5.426;2024-03-23T11:25:16;8.05;;;1.45;;
67889;SDS011;54685;52.082;5.426;2024-03-23T11:27:44;10.25;;;2.05;;
67889;SDS011;54685;52.082;5.426;2024-03-23T11:30:18;14.52;;;1.77;;
67889;SDS011;54685;52.082;5.426;2024-03-23T11:32:51;4.72;;;1.70;;
67889;SDS011;54685;52.082;5.426;2024-03-23T11:35:29;8.98;;;1.65;;
67889;SDS011;54685;52.082;5.426;2024-03-23T11:40:30;10.05;;;2.10;;
67889;SDS011;54685;52.082;5.426;2024-03-23T11:43:01;11.60;;;2.20;;
67889;SDS011;54685;52.082;5.426;2024-03-23T11:45:28;9.43;;;2.22;;
67889;SDS011;54685;52.082;5.426;2024-03-23T11:48:04;7.18;;;1.92;;
67889;SDS011;54685;52.082;5.426;2024-03-23T11:50:35;6.53;;;1.55;;
67889;SDS011;54685;52.082;5.426;2024-03-23T11:55:39;9.75;;;2.00;;
67889;SDS011;54685;52.082;5.426;2024-03-23T11:58:06;11.52;;;2.17;;
67889;SDS011;54685;52.082;5.426;2024-03-23T12:00:34;8.45;;;3.00;;
67889;SDS011;54685;52.082;5.426;2024-03-23T12:03:01;11.40;;;2.60;;
67889;SDS011;54685;52.082;5.426;2024-03-23T12:05:27;9.95;;;2.20;;
67889;SDS011;54685;52.082;5.426;2024-03-23T12:07:54;9.63;;;2.80;;
67889;SDS011;54685;52.082;5.426;2024-03-23T12:10:21;7.05;;;2.22;;
67889;SDS011;54685;52.082;5.426;2024-03-23T12:12:58;13.35;;;2.05;;
67889;SDS011;54685;52.082;5.426;2024-03-23T12:15:25;8.77;;;2.08;;
67889;SDS011;54685;52.082;5.426;2024-03-23T12:17:52;17.75;;;2.65;;
67889;SDS011;54685;52.082;5.426;2024-03-23T12:20:30;6.82;;;1.90;;
67889;SDS011;54685;52.082;5.426;2024-03-23T12:25:51;11.75;;;2.30;;
67889;SDS011;54685;52.082;5.426;2024-03-23T12:28:17;9.35;;;2.50;;
67889;SDS011;54685;52.082;5.426;2024-03-23T12:30:43;10.68;;;2.13;;
67889;SDS011;54685;52.082;5.426;2024-03-23T12:33:09;11.30;;;2.60;;
67889;SDS011;54685;52.082;5.426;2024-03-23T12:35:35;11.73;;;2.35;;
67889;SDS011;54685;52.082;5.426;2024-03-23T12:38:00;11.07;;;2.50;;
67889;SDS011;54685;52.082;5.426;2024-03-23T12:40:26;10.55;;;2.28;;
67889;SDS011;54685;52.082;5.426;2024-03-23T12:42:53;11.52;;;2.67;;
67889;SDS011;54685;52.082;5.426;2024-03-23T12:45:19;8.02;;;2.05;;
67889;SDS011;54685;52.082;5.426;2024-03-23T12:47:45;12.52;;;1.90;;
67889;SDS011;54685;52.082;5.426;2024-03-23T12:50:11;9.82;;;2.22;;
67889;SDS011;54685;52.082;5.426;2024-03-23T12:52:38;9.75;;;1.88;;
67889;SDS011;54685;52.082;5.426;2024-03-23T12:55:04;15.32;;;2.00;;
67889;SDS011;54685;52.082;5.426;2024-03-23T12:57:32;9.95;;;2.15;;
67889;SDS011;54685;52.082;5.426;2024-03-23T12:59:58;8.02;;;1.83;;
67889;SDS011;54685;52.082;5.426;2024-03-23T13:02:25;5.78;;;1.73;;
67889;SDS011;54685;52.082;5.426;2024-03-23T13:04:52;10.50;;;2.13;;
67889;SDS011;54685;52.082;5.426;2024-03-23T13:07:18;12.00;;;2.20;;
67889;SDS011;54685;52.082;5.426;2024-03-23T13:09:45;12.55;;;2.15;;
67889;SDS011;54685;52.082;5.426;2024-03-23T13:12:11;10.27;;;2.08;;
67889;SDS011;54685;52.082;5.426;2024-03-23T13:14:38;12.02;;;2.25;;
67889;SDS011;54685;52.082;5.426;2024-03-23T13:17:04;7.63;;;1.70;;
67889;SDS011;54685;52.082;5.426;2024-03-23T13:19:31;8.30;;;1.80;;
67889;SDS011;54685;52.082;5.426;2024-03-23T13:21:57;7.80;;;2.17;;
67889;SDS011;54685;52.082;5.426;2024-03-23T13:24:24;5.13;;;1.73;;
67889;SDS011;54685;52.082;5.426;2024-03-23T13:26:50;8.55;;;1.63;;
67889;SDS011;54685;52.082;5.426;2024-03-23T13:29:18;9.43;;;1.13;;
67889;SDS011;54685;52.082;5.426;2024-03-23T13:31:44;3.65;;;0.85;;
67889;SDS011;54685;52.082;5.426;2024-03-23T13:34:11;6.80;;;1.25;;
67889;SDS011;54685;52.082;5.426;2024-03-23T13:36:38;8.40;;;1.90;;
67889;SDS011;54685;52.082;5.426;2024-03-23T13:39:04;3.40;;;1.13;;
67889;SDS011;54685;52.082;5.426;2024-03-23T13:41:39;4.95;;;1.10;;
67889;SDS011;54685;52.082;5.426;2024-03-23T13:44:06;6.18;;;0.90;;
67889;SDS011;54685;52.082;5.426;2024-03-23T13:46:32;6.85;;;1.20;;
67889;SDS011;54685;52.082;5.426;2024-03-23T13:48:58;5.00;;;0.95;;
67889;SDS011;54685;52.082;5.426;2024-03-23T13:51:25;5.55;;;1.10;;
67889;SDS011;54685;52.082;5.426;2024-03-23T13:53:54;7.75;;;1.33;;
67889;SDS011;54685;52.082;5.426;2024-03-23T13:56:24;3.08;;;1.10;;
67889;SDS011;54685;52.082;5.426;2024-03-23T13:58:50;4.55;;;1.00;;
67889;SDS011;54685;52.082;5.426;2024-03-23T14:01:16;8.00;;;0.90;;
67889;SDS011;54685;52.082;5.426;2024-03-23T14:03:42;5.93;;;0.82;;
67889;SDS011;54685;52.082;5.426;2024-03-23T14:06:09;7.30;;;0.82;;
67889;SDS011;54685;52.082;5.426;2024-03-23T14:08:36;3.83;;;1.00;;
67889;SDS011;54685;52.082;5.426;2024-03-23T14:11:13;4.95;;;0.90;;
67889;SDS011;54685;52.082;5.426;2024-03-23T14:13:39;7.97;;;0.95;;
67889;SDS011;54685;52.082;5.426;2024-03-23T14:16:05;8.57;;;1.92;;
67889;SDS011;54685;52.082;5.426;2024-03-23T14:18:31;8.57;;;1.45;;
67889;SDS011;54685;52.082;5.426;2024-03-23T14:20:58;6.40;;;1.90;;
67889;SDS011;54685;52.082;5.426;2024-03-23T14:23:26;6.38;;;1.38;;
67889;SDS011;54685;52.082;5.426;2024-03-23T14:25:54;10.63;;;2.05;;
67889;SDS011;54685;52.082;5.426;2024-03-23T14:28:21;10.00;;;2.17;;
67889;SDS011;54685;52.082;5.426;2024-03-23T14:30:48;10.85;;;2.03;;
67889;SDS011;54685;52.082;5.426;2024-03-23T14:33:15;11.35;;;2.10;;
67889;SDS011;54685;52.082;5.426;2024-03-23T14:35:53;7.75;;;1.73;;
67889;SDS011;54685;52.082;5.426;2024-03-23T14:38:23;5.13;;;1.35;;
67889;SDS011;54685;52.082;5.426;2024-03-23T14:40:49;10.50;;;1.65;;
67889;SDS011;54685;52.082;5.426;2024-03-23T14:43:15;9.85;;;1.60;;
67889;SDS011;54685;52.082;5.426;2024-03-23T14:45:49;6.45;;;1.60;;
67889;SDS011;54685;52.082;5.426;2024-03-23T14:48:34;8.52;;;1.67;;
67889;SDS011;54685;52.082;5.426;2024-03-23T14:51:00;11.35;;;1.98;;
67889;SDS011;54685;52.082;5.426;2024-03-23T14:53:27;7.22;;;1.50;;
67889;SDS011;54685;52.082;5.426;2024-03-23T14:55:56;7.28;;;1.38;;
67889;SDS011;54685;52.082;5.426;2024-03-23T14:58:22;6.93;;;1.70;;
67889;SDS011;54685;52.082;5.426;2024-03-23T15:00:48;9.73;;;1.83;;
67889;SDS011;54685;52.082;5.426;2024-03-23T15:03:14;8.45;;;2.00;;
67889;SDS011;54685;52.082;5.426;2024-03-23T15:05:41;6.22;;;1.40;;
67889;SDS011;54685;52.082;5.426;2024-03-23T15:08:07;11.40;;;1.70;;
67889;SDS011;54685;52.082;5.426;2024-03-23T15:10:33;11.90;;;1.80;;
67889;SDS011;54685;52.082;5.426;2024-03-23T15:12:59;10.05;;;2.25;;
67889;SDS011;54685;52.082;5.426;2024-03-23T15:15:25;10.55;;;2.22;;
67889;SDS011;54685;52.082;5.426;2024-03-23T15:17:51;11.73;;;1.80;;
67889;SDS011;54685;52.082;5.426;2024-03-23T15:20:17;5.55;;;1.35;;
67889;SDS011;54685;52.082;5.426;2024-03-23T15:22:43;6.85;;;1.70;;
67889;SDS011;54685;52.082;5.426;2024-03-23T15:25:09;3.75;;;0.90;;
67889;SDS011;54685;52.082;5.426;2024-03-23T15:27:35;5.10;;;1.20;;
67889;SDS011;54685;52.082;5.426;2024-03-23T15:30:02;6.30;;;1.40;;
67889;SDS011;54685;52.082;5.426;2024-03-23T15:32:28;2.53;;;0.65;;
67889;SDS011;54685;52.082;5.426;2024-03-23T15:34:54;7.78;;;1.35;;
67889;SDS011;54685;52.082;5.426;2024-03-23T15:37:20;7.13;;;1.40;;
67889;SDS011;54685;52.082;5.426;2024-03-23T15:39:46;6.32;;;1.50;;
67889;SDS011;54685;52.082;5.426;2024-03-23T15:42:12;8.73;;;1.70;;
67889;SDS011;54685;52.082;5.426;2024-03-23T15:44:38;7.68;;;1.75;;
67889;SDS011;54685;52.082;5.426;2024-03-23T15:47:04;5.45;;;1.33;;
67889;SDS011;54685;52.082;5.426;2024-03-23T15:49:31;8.57;;;1.73;;
67889;SDS011;54685;52.082;5.426;2024-03-23T15:51:56;10.85;;;1.80;;